Becancour, Canada
Current Conditions -  °F | °C
As of 3:35 AM on Sunday 26 Oct 2014 (Local Time) from CYRQ Reporting Station
Haze Haze  
Wind Chill: 46°   Ceiling: 4300
Heat Index: 46°   Visibility: 2.2mi
Dew Point: 46°   Wind: 0mph
Humidity: 100%   Direction: NA
Pressure: 29.34"   Gusts: NA
Location:  46.36°N, 72.44°W
Report Text: CYRQ 260735Z AUTO 00000KT 2 1/4SM BR FEW035 OVC043 08/08 A2934 RMK SLP938
Loading
Personal Weather Stations






























Interactive Weather Map
Tropical Storm Tracking
New forecast layout! Learn more

10-Day Weather Forecast

Advertisements
Track Severe Weather on mobile